createdAt,value
2018-06-27T00:01:45.063Z,41.33
2018-06-27T00:04:14.486Z,38.60
2018-06-27T00:06:43.847Z,36.03
2018-06-27T00:09:13.234Z,38.07
2018-06-27T00:11:42.720Z,35.57
2018-06-27T00:14:12.099Z,51.37
2018-06-27T00:16:41.474Z,40.17
2018-06-27T00:19:10.750Z,42.33
2018-06-27T00:21:40.379Z,39.17
2018-06-27T00:24:09.715Z,41.70
2018-06-27T00:26:39.052Z,44.37
2018-06-27T00:29:08.442Z,41.70
2018-06-27T00:31:37.847Z,47.60
2018-06-27T00:34:07.235Z,46.70
2018-06-27T00:36:36.626Z,47.23
2018-06-27T00:39:09.205Z,56.83
2018-06-27T00:41:38.636Z,52.00
2018-06-27T00:44:07.978Z,48.37
2018-06-27T00:46:37.706Z,40.70
2018-06-27T00:49:07.249Z,49.23
2018-06-27T00:51:36.769Z,46.77
2018-06-27T00:54:10.583Z,47.23
2018-06-27T00:56:41.687Z,57.73
2018-06-27T00:59:11.300Z,46.43
2018-06-27T01:01:44.055Z,48.10
2018-06-27T01:04:13.348Z,53.70
2018-06-27T01:06:42.655Z,45.47
2018-06-27T01:09:11.983Z,46.13
2018-06-27T01:11:41.317Z,58.60
2018-06-27T01:14:10.651Z,47.53
2018-06-27T01:16:39.996Z,53.23
2018-06-27T01:19:10.012Z,50.33
2018-06-27T01:21:39.346Z,42.57
2018-06-27T01:24:08.666Z,39.30
2018-06-27T01:26:38.040Z,36.73
2018-06-27T01:29:07.310Z,44.67
2018-06-27T01:31:36.575Z,60.03
2018-06-27T01:34:05.851Z,50.53
2018-06-27T01:36:35.178Z,52.13
2018-06-27T01:39:06.688Z,52.67
2018-06-27T01:41:36.195Z,59.07
2018-06-27T01:44:05.598Z,51.07
2018-06-27T01:46:35.389Z,50.50
2018-06-27T01:49:04.825Z,54.20
2018-06-27T01:51:34.196Z,47.53
2018-06-27T01:54:03.584Z,45.70
2018-06-27T01:56:32.924Z,58.73
2018-06-27T01:59:02.208Z,57.57
2018-06-27T02:01:31.257Z,45.90
2018-06-27T02:04:00.884Z,48.03
2018-06-27T02:06:30.168Z,46.43
2018-06-27T02:08:59.643Z,41.93
2018-06-27T02:11:29.196Z,49.70
2018-06-27T02:13:58.498Z,42.00
2018-06-27T02:16:27.755Z,52.40
2018-06-27T02:18:57.076Z,41.67
2018-06-27T02:21:26.414Z,48.60
2018-06-27T02:23:55.732Z,48.73
2018-06-27T02:26:25.216Z,46.20
2018-06-27T02:28:54.658Z,54.37
2018-06-27T02:31:24.005Z,61.60
2018-06-27T02:33:53.620Z,42.33
2018-06-27T02:36:22.947Z,51.37
2018-06-27T02:38:52.420Z,40.97
2018-06-27T02:41:21.968Z,47.03
2018-06-27T02:43:51.291Z,35.80
2018-06-27T02:46:20.671Z,47.47
2018-06-27T02:48:50.331Z,40.33
2018-06-27T02:51:19.641Z,43.30
2018-06-27T02:53:48.989Z,40.70
2018-06-27T02:56:18.387Z,48.83
2018-06-27T02:58:47.878Z,35.20
2018-06-27T03:01:16.968Z,46.90
2018-06-27T03:03:46.264Z,41.13
2018-06-27T03:06:15.552Z,59.23
2018-06-27T03:08:44.891Z,35.70
2018-06-27T03:11:14.193Z,33.27
2018-06-27T03:13:43.253Z,41.87
2018-06-27T03:16:12.534Z,49.43
2018-06-27T03:18:52.614Z,54.57
2018-06-27T03:21:22.451Z,41.07
2018-06-27T03:23:51.762Z,43.23
2018-06-27T03:26:21.575Z,37.93
2018-06-27T03:28:50.944Z,40.73
2018-06-27T03:31:20.237Z,40.90
2018-06-27T03:33:49.668Z,47.50
2018-06-27T03:36:18.909Z,39.90
2018-06-27T03:38:48.213Z,59.40
2018-06-27T03:41:17.605Z,48.20
2018-06-27T03:43:46.855Z,45.57
2018-06-27T03:46:16.146Z,48.77
2018-06-27T03:48:45.606Z,44.63
2018-06-27T03:51:14.883Z,53.80
2018-06-27T03:53:48.340Z,41.77
2018-06-27T03:56:17.687Z,37.07
2018-06-27T03:58:47.000Z,36.10
2018-06-27T04:01:16.308Z,50.73
2018-06-27T04:03:45.898Z,36.13
2018-06-27T04:06:15.153Z,32.40
2018-06-27T04:08:44.674Z,51.10
2018-06-27T04:11:14.130Z,40.83
2018-06-27T04:13:43.611Z,42.60
2018-06-27T04:16:13.992Z,45.07
2018-06-27T04:18:43.384Z,47.33
2018-06-27T04:21:12.784Z,47.87
2018-06-27T04:23:42.134Z,38.90
2018-06-27T04:26:11.433Z,43.53
2018-06-27T04:28:40.737Z,57.83
2018-06-27T04:31:10.245Z,33.07
2018-06-27T04:33:39.591Z,40.73
2018-06-27T04:36:09.058Z,40.70
2018-06-27T04:38:38.397Z,45.77
2018-06-27T04:41:07.720Z,45.40
2018-06-27T04:43:37.100Z,42.20
2018-06-27T04:46:06.484Z,62.23
2018-06-27T04:48:35.872Z,44.73
2018-06-27T04:51:05.285Z,44.23
2018-06-27T04:53:34.549Z,47.23
2018-06-27T04:56:04.353Z,51.10
2018-06-27T04:58:33.775Z,40.67
2018-06-27T05:01:03.262Z,39.83
2018-06-27T05:03:32.816Z,46.50
2018-06-27T05:06:02.156Z,37.93
2018-06-27T05:08:31.527Z,43.87
2018-06-27T05:11:00.970Z,25.70
2018-06-27T05:13:30.323Z,47.43
2018-06-27T05:16:00.183Z,39.00
2018-06-27T05:18:29.558Z,35.67
2018-06-27T05:20:58.903Z,39.23
2018-06-27T05:23:28.204Z,52.73
2018-06-27T05:25:57.573Z,34.23
2018-06-27T05:28:26.968Z,53.27
2018-06-27T05:30:56.365Z,40.43
2018-06-27T05:33:25.488Z,35.03
2018-06-27T05:35:54.806Z,33.80
2018-06-27T05:38:24.334Z,37.30
2018-06-27T05:40:53.841Z,38.67
2018-06-27T05:43:23.167Z,44.10
2018-06-27T05:45:52.562Z,38.90
2018-06-27T05:48:21.869Z,40.70
2018-06-27T05:50:51.166Z,30.60
2018-06-27T05:53:20.510Z,28.93
2018-06-27T05:55:49.913Z,28.20
2018-06-27T05:58:19.890Z,37.40
2018-06-27T06:00:49.263Z,34.70
2018-06-27T06:03:18.666Z,34.87
2018-06-27T06:05:48.282Z,33.40
2018-06-27T06:08:17.612Z,26.47
2018-06-27T06:10:47.250Z,27.10
2018-06-27T06:13:16.707Z,28.27
2018-06-27T06:15:46.121Z,29.40
2018-06-27T06:18:15.461Z,38.03
2018-06-27T06:20:44.830Z,29.53
2018-06-27T06:23:14.621Z,29.17
2018-06-27T06:25:44.038Z,32.13
2018-06-27T06:28:13.408Z,39.37
2018-06-27T06:30:42.746Z,32.70
2018-06-27T06:33:12.083Z,41.90
2018-06-27T06:35:41.379Z,24.67
2018-06-27T06:38:10.672Z,32.63
2018-06-27T06:40:39.996Z,29.27
2018-06-27T06:43:09.239Z,29.73
2018-06-27T06:45:38.915Z,21.30
2018-06-27T06:48:08.333Z,21.60
2018-06-27T06:50:37.751Z,16.53
2018-06-27T06:53:07.160Z,27.87
2018-06-27T06:55:36.638Z,25.00
2018-06-27T06:58:05.995Z,18.10
2018-06-27T07:00:35.374Z,19.20
2018-06-27T07:03:04.696Z,14.83
2018-06-27T07:05:33.999Z,13.63
2018-06-27T07:08:03.814Z,18.90
2018-06-27T07:10:33.200Z,10.43
2018-06-27T07:13:02.495Z,16.27
2018-06-27T07:15:31.852Z,13.40
2018-06-27T07:18:01.187Z,11.47
2018-06-27T07:20:30.501Z,22.80
2018-06-27T07:22:59.879Z,4.60
2018-06-27T07:25:29.199Z,5.33
2018-06-27T07:27:58.546Z,3.67
2018-06-27T07:30:28.130Z,3.73
2018-06-27T07:32:57.484Z,7.57
2018-06-27T07:35:26.794Z,3.83
2018-06-27T07:37:56.833Z,6.30
2018-06-27T07:40:26.140Z,6.73
2018-06-27T07:42:55.426Z,3.90
2018-06-27T07:45:24.810Z,13.10
2018-06-27T07:47:54.146Z,5.40
2018-06-27T07:50:23.431Z,1.90
2018-06-27T07:52:52.856Z,3.00
2018-06-27T07:55:22.181Z,3.87
2018-06-27T07:57:51.514Z,14.83
2018-06-27T08:00:20.885Z,2.57
2018-06-27T08:02:50.159Z,2.20
2018-06-27T08:05:19.536Z,3.60
2018-06-27T08:07:49.039Z,2.23
2018-06-27T08:10:18.313Z,2.00
2018-06-27T08:12:47.641Z,1.40
2018-06-27T08:15:17.012Z,1.40
2018-06-27T08:17:46.329Z,1.50
2018-06-27T08:20:15.632Z,2.17
2018-06-27T08:22:44.994Z,1.70
2018-06-27T08:25:14.258Z,1.60
2018-06-27T08:27:43.569Z,1.90
2018-06-27T08:30:12.990Z,3.77
2018-06-27T08:32:42.288Z,1.23
2018-06-27T08:35:11.643Z,1.70
2018-06-27T08:37:41.176Z,1.30
2018-06-27T08:40:10.575Z,1.53
2018-06-27T08:42:39.932Z,1.80
2018-06-27T08:45:09.371Z,1.43
2018-06-27T08:47:38.912Z,1.40
2018-06-27T08:50:08.240Z,1.67
2018-06-27T08:52:37.603Z,4.50
2018-06-27T08:55:06.982Z,1.33
2018-06-27T08:57:36.327Z,2.10
2018-06-27T09:00:05.922Z,4.23
2018-06-27T09:02:35.289Z,1.47
2018-06-27T09:05:04.759Z,3.70
2018-06-27T09:07:34.119Z,1.23
2018-06-27T09:10:03.435Z,1.53
2018-06-27T09:12:32.720Z,2.37
2018-06-27T09:15:02.181Z,1.30
2018-06-27T09:17:31.584Z,2.10
2018-06-27T09:20:00.935Z,1.70
2018-06-27T09:22:30.398Z,1.40
2018-06-27T09:24:59.750Z,1.67
2018-06-27T09:27:29.079Z,1.27
2018-06-27T09:29:58.432Z,2.93
2018-06-27T09:32:27.774Z,1.70
2018-06-27T09:34:57.130Z,1.80
2018-06-27T09:37:26.529Z,1.87
2018-06-27T09:39:55.880Z,2.50
2018-06-27T09:42:25.281Z,5.80
2018-06-27T09:44:55.111Z,3.40
2018-06-27T09:47:24.417Z,7.23
2018-06-27T09:49:54.338Z,5.97
2018-06-27T09:52:23.669Z,0.90
2018-06-27T09:54:56.424Z,1.50
2018-06-27T09:57:26.231Z,3.03
2018-06-27T09:59:55.588Z,6.10
2018-06-27T10:02:24.970Z,1.47
2018-06-27T10:04:54.480Z,5.77
2018-06-27T10:07:23.779Z,19.47
2018-06-27T10:09:53.215Z,1.20
2018-06-27T10:12:22.583Z,1.30
2018-06-27T10:14:51.920Z,25.30
2018-06-27T10:17:22.183Z,1.70
2018-06-27T10:19:51.622Z,1.13
2018-06-27T10:22:20.974Z,1.97
2018-06-27T10:24:50.375Z,1.37
2018-06-27T10:27:19.889Z,3.03
2018-06-27T10:29:49.284Z,8.00
2018-06-27T10:32:18.624Z,1.60
2018-06-27T10:34:48.051Z,1.20
2018-06-27T10:37:17.398Z,2.43
2018-06-27T10:39:46.512Z,2.10
2018-06-27T10:42:15.914Z,1.43
2018-06-27T10:44:45.281Z,2.60
2018-06-27T10:47:14.678Z,3.70
2018-06-27T10:49:44.164Z,3.30
2018-06-27T10:52:13.504Z,1.23
2018-06-27T10:54:48.134Z,1.13
2018-06-27T10:57:18.151Z,9.93
2018-06-27T10:59:47.509Z,1.10
2018-06-27T11:02:16.910Z,2.93
2018-06-27T11:04:46.283Z,0.90
2018-06-27T11:07:15.712Z,3.07
2018-06-27T11:09:45.226Z,1.30
2018-06-27T11:12:14.601Z,1.10
2018-06-27T11:14:44.022Z,6.43
2018-06-27T11:17:13.558Z,3.17
2018-06-27T11:19:42.955Z,1.37
2018-06-27T11:22:12.367Z,1.03
2018-06-27T11:24:41.777Z,1.50
2018-06-27T11:27:11.091Z,3.63
2018-06-27T11:29:40.557Z,5.57
2018-06-27T11:32:10.092Z,2.37
2018-06-27T11:34:39.518Z,1.20
2018-06-27T11:37:09.196Z,11.70
2018-06-27T11:39:38.653Z,2.00
2018-06-27T11:42:08.056Z,1.37
2018-06-27T11:44:37.501Z,1.30
2018-06-27T11:47:06.916Z,1.17
2018-06-27T11:49:36.316Z,0.90
2018-06-27T11:52:05.683Z,1.00
2018-06-27T11:54:35.237Z,3.73
2018-06-27T11:57:04.639Z,2.30
2018-06-27T11:59:34.054Z,4.03
2018-06-27T12:02:03.994Z,1.20
2018-06-27T12:04:33.351Z,1.10
2018-06-27T12:07:02.724Z,3.90
2018-06-27T12:09:32.331Z,1.10
2018-06-27T12:12:01.810Z,3.33
2018-06-27T12:14:31.286Z,5.60
2018-06-27T12:17:00.804Z,4.07
2018-06-27T12:19:30.315Z,6.77
2018-06-27T12:21:59.672Z,4.00
2018-06-27T12:24:29.161Z,9.10
2018-06-27T12:26:58.580Z,4.03
2018-06-27T12:29:27.983Z,1.30
2018-06-27T12:31:57.362Z,2.33
2018-06-27T12:34:26.784Z,1.00
2018-06-27T12:36:55.913Z,4.20
2018-06-27T12:39:25.752Z,1.33
2018-06-27T12:41:55.148Z,2.00
2018-06-27T12:44:24.601Z,8.23
2018-06-27T12:46:53.950Z,1.70
2018-06-27T12:49:23.376Z,1.27
2018-06-27T12:51:52.902Z,5.53
2018-06-27T12:54:22.425Z,2.00
2018-06-27T12:56:51.795Z,1.30
2018-06-27T12:59:21.243Z,9.93
2018-06-27T13:01:50.898Z,1.00
2018-06-27T13:04:20.638Z,3.80
2018-06-27T13:06:50.210Z,3.87
2018-06-27T13:09:19.872Z,1.00
2018-06-27T13:11:49.288Z,1.30
2018-06-27T13:14:18.792Z,1.10
2018-06-27T13:16:48.195Z,47.20
2018-06-27T13:19:17.717Z,1.80
2018-06-27T13:21:47.165Z,1.20
2018-06-27T13:24:16.782Z,9.53
2018-06-27T13:26:46.244Z,1.07
2018-06-27T13:29:15.842Z,1.20
2018-06-27T13:31:45.401Z,1.23
2018-06-27T13:34:14.897Z,1.20
2018-06-27T13:36:44.404Z,1.10
2018-06-27T13:39:13.954Z,0.90
2018-06-27T13:41:43.448Z,2.77
2018-06-27T13:44:12.847Z,1.33
2018-06-27T13:46:42.754Z,2.73
2018-06-27T13:49:12.753Z,0.77
2018-06-27T13:51:42.070Z,2.67
2018-06-27T13:54:11.587Z,1.77
2018-06-27T13:56:40.903Z,5.43
2018-06-27T13:59:10.215Z,1.90
2018-06-27T14:01:39.583Z,3.80
2018-06-27T14:04:08.918Z,3.27
2018-06-27T14:06:38.274Z,0.90
2018-06-27T14:09:09.895Z,1.27
2018-06-27T14:11:39.176Z,1.30
2018-06-27T14:14:08.457Z,7.53
2018-06-27T14:16:37.798Z,2.90
2018-06-27T14:19:07.159Z,1.10
2018-06-27T14:21:36.513Z,2.97
2018-06-27T14:24:05.862Z,1.07
2018-06-27T14:26:35.164Z,1.03
2018-06-27T14:29:04.634Z,3.17
2018-06-27T14:31:34.154Z,2.40
2018-06-27T14:34:03.458Z,1.60
2018-06-27T14:36:32.815Z,1.00
2018-06-27T14:39:02.200Z,5.00
2018-06-27T14:41:31.487Z,2.73
2018-06-27T14:44:00.879Z,0.80
2018-06-27T14:46:30.368Z,0.90
2018-06-27T14:48:59.659Z,1.10
2018-06-27T14:51:28.955Z,1.17
2018-06-27T14:53:58.495Z,0.90
2018-06-27T14:56:27.813Z,5.23
2018-06-27T14:58:57.314Z,1.33
2018-06-27T15:01:26.797Z,2.70
2018-06-27T15:03:56.145Z,1.33
2018-06-27T15:06:25.448Z,5.10
2018-06-27T15:08:54.777Z,1.10
2018-06-27T15:11:24.116Z,1.20
2018-06-27T15:13:53.468Z,1.27
2018-06-27T15:16:23.043Z,1.07
2018-06-27T15:18:52.374Z,1.73
2018-06-27T15:21:21.663Z,0.93
2018-06-27T15:23:51.026Z,1.17
2018-06-27T15:26:20.311Z,3.60
2018-06-27T15:28:49.892Z,1.40
2018-06-27T15:31:19.395Z,0.93
2018-06-27T15:33:48.648Z,10.50
2018-06-27T15:36:18.015Z,2.93
2018-06-27T15:38:47.827Z,0.90
2018-06-27T15:41:17.339Z,3.70
2018-06-27T15:43:46.812Z,2.30
2018-06-27T15:46:16.399Z,0.80
2018-06-27T15:48:45.871Z,1.43
2018-06-27T15:51:15.065Z,2.87
2018-06-27T15:53:44.587Z,1.67
2018-06-27T15:56:14.002Z,1.00
2018-06-27T15:58:43.450Z,1.63
2018-06-27T16:01:13.151Z,1.40
2018-06-27T16:03:43.122Z,1.50
2018-06-27T16:06:12.769Z,2.77
2018-06-27T16:08:42.271Z,1.30
2018-06-27T16:11:11.571Z,4.80
2018-06-27T16:13:41.127Z,2.20
2018-06-27T16:16:10.646Z,2.20
2018-06-27T16:18:39.782Z,3.80
2018-06-27T16:21:09.187Z,1.17
2018-06-27T16:23:38.898Z,1.50
2018-06-27T16:26:08.275Z,3.43
2018-06-27T16:28:37.649Z,2.57
2018-06-27T16:31:07.340Z,5.37
2018-06-27T16:33:36.846Z,3.60
2018-06-27T16:36:06.392Z,1.50
2018-06-27T16:38:35.783Z,1.50
2018-06-27T16:41:05.268Z,1.70
2018-06-27T16:43:34.817Z,2.10
2018-06-27T16:46:04.339Z,1.10
2018-06-27T16:48:33.919Z,1.57
2018-06-27T16:51:03.361Z,1.10
2018-06-27T16:53:32.646Z,3.77
2018-06-27T16:56:02.012Z,10.47
2018-06-27T16:58:31.779Z,1.37
2018-06-27T17:01:01.268Z,1.70
2018-06-27T17:03:30.673Z,3.70
2018-06-27T17:06:00.408Z,1.23
2018-06-27T17:08:29.991Z,2.00
2018-06-27T17:10:59.424Z,1.43
2018-06-27T17:13:28.756Z,1.40
2018-06-27T17:15:58.235Z,1.50
2018-06-27T17:18:27.669Z,1.87
2018-06-27T17:20:57.023Z,1.67
2018-06-27T17:23:26.575Z,1.50
2018-06-27T17:25:56.008Z,3.60
2018-06-27T17:28:25.402Z,4.33
2018-06-27T17:30:54.883Z,1.67
2018-06-27T17:33:24.274Z,2.93
2018-06-27T17:35:53.621Z,3.53
2018-06-27T17:38:23.048Z,1.50
2018-06-27T17:40:52.476Z,3.23
2018-06-27T17:43:21.810Z,4.57
2018-06-27T17:45:51.353Z,1.70
2018-06-27T17:48:20.647Z,3.80
2018-06-27T17:50:49.990Z,1.37
2018-06-27T17:53:19.461Z,1.80
2018-06-27T17:55:48.756Z,1.70
2018-06-27T17:58:18.072Z,13.23
2018-06-27T18:00:47.487Z,3.07
2018-06-27T18:03:16.875Z,1.90
2018-06-27T18:05:46.205Z,1.90
2018-06-27T18:08:15.857Z,7.47
2018-06-27T18:10:45.181Z,2.00
2018-06-27T18:13:14.553Z,2.00
2018-06-27T18:15:44.371Z,2.97
2018-06-27T18:18:13.662Z,1.60
2018-06-27T18:20:42.928Z,2.20
2018-06-27T18:23:12.425Z,1.77
2018-06-27T18:25:41.699Z,1.97
2018-06-27T18:28:11.037Z,4.97
2018-06-27T18:30:40.390Z,1.50
2018-06-27T18:33:09.684Z,2.93
2018-06-27T18:35:39.029Z,4.53
2018-06-27T18:38:08.921Z,2.70
2018-06-27T18:40:38.316Z,2.00
2018-06-27T18:43:07.682Z,7.83
2018-06-27T18:45:37.000Z,2.33
2018-06-27T18:48:06.448Z,1.93
2018-06-27T18:50:35.723Z,10.70
2018-06-27T18:53:05.384Z,4.47
2018-06-27T18:55:34.654Z,4.83
2018-06-27T18:58:04.227Z,1.90
2018-06-27T19:00:34.068Z,2.70
2018-06-27T19:03:03.487Z,4.97
2018-06-27T19:05:32.810Z,8.07
2018-06-27T19:08:02.258Z,6.33
2018-06-27T19:10:31.585Z,5.03
2018-06-27T19:13:00.965Z,4.33
2018-06-27T19:15:30.397Z,2.17
2018-06-27T19:17:59.847Z,2.20
2018-06-27T19:20:29.186Z,5.17
2018-06-27T19:22:58.710Z,10.27
2018-06-27T19:25:28.068Z,3.63
2018-06-27T19:27:57.465Z,3.13
2018-06-27T19:30:27.711Z,24.13
2018-06-27T19:32:56.974Z,2.00
2018-06-27T19:35:26.276Z,9.03
2018-06-27T19:37:55.633Z,10.43
2018-06-27T19:40:25.007Z,1.90
2018-06-27T19:42:54.397Z,5.23
2018-06-27T19:45:23.946Z,2.73
2018-06-27T19:47:53.319Z,2.30
2018-06-27T19:50:22.745Z,2.60
2018-06-27T19:52:52.096Z,1.80
2018-06-27T19:55:21.488Z,3.73
2018-06-27T19:57:50.801Z,6.80
2018-06-27T20:00:20.186Z,2.40
2018-06-27T20:02:49.552Z,4.83
2018-06-27T20:05:18.907Z,8.37
2018-06-27T20:07:48.496Z,2.33
2018-06-27T20:10:17.817Z,3.90
2018-06-27T20:12:47.232Z,2.80
2018-06-27T20:15:16.755Z,4.57
2018-06-27T20:17:46.018Z,7.67
2018-06-27T20:20:15.367Z,6.30
2018-06-27T20:22:44.763Z,4.80
2018-06-27T20:25:14.091Z,6.53
2018-06-27T20:27:43.439Z,4.27
2018-06-27T20:30:12.995Z,17.43
2018-06-27T20:32:42.383Z,2.97
2018-06-27T20:35:11.683Z,8.40
2018-06-27T20:37:41.160Z,2.70
2018-06-27T20:40:11.330Z,3.00
2018-06-27T20:42:40.696Z,3.13
2018-06-27T20:45:10.079Z,3.07
2018-06-27T20:47:39.437Z,2.70
2018-06-27T20:50:08.804Z,3.43
2018-06-27T20:52:38.277Z,3.23
2018-06-27T20:55:07.621Z,2.67
2018-06-27T20:57:36.968Z,3.40
2018-06-27T21:00:07.495Z,3.27
2018-06-27T21:02:37.005Z,3.37
2018-06-27T21:05:06.440Z,2.53
2018-06-27T21:07:35.895Z,3.80
2018-06-27T21:10:05.681Z,5.00
2018-06-27T21:12:34.995Z,3.30
2018-06-27T21:15:04.443Z,3.03
2018-06-27T21:17:33.833Z,4.73
2018-06-27T21:20:03.223Z,7.37
2018-06-27T21:22:32.720Z,2.93
2018-06-27T21:25:02.182Z,3.23
2018-06-27T21:27:31.519Z,2.67
2018-06-27T21:30:00.668Z,8.27
2018-06-27T21:32:30.020Z,4.27
2018-06-27T21:35:00.141Z,9.30
2018-06-27T21:37:29.506Z,3.90
2018-06-27T21:39:59.025Z,5.23
2018-06-27T21:42:28.967Z,3.03
2018-06-27T21:44:58.531Z,4.20
2018-06-27T21:47:28.238Z,5.90
2018-06-27T21:49:57.664Z,2.60
2018-06-27T21:52:27.225Z,2.50
2018-06-27T21:54:56.615Z,2.70
2018-06-27T21:57:26.059Z,3.03
2018-06-27T21:59:55.695Z,10.97
2018-06-27T22:02:25.131Z,7.73
2018-06-27T22:04:54.528Z,5.60
2018-06-27T22:07:24.091Z,2.53
2018-06-27T22:09:53.814Z,2.70
2018-06-27T22:12:23.285Z,4.00
2018-06-27T22:14:52.932Z,7.90
2018-06-27T22:17:22.605Z,3.20
2018-06-27T22:19:52.245Z,2.50
2018-06-27T22:22:21.993Z,5.93
2018-06-27T22:24:51.697Z,5.77
2018-06-27T22:27:21.125Z,2.87
2018-06-27T22:29:50.836Z,12.10
2018-06-27T22:32:20.584Z,2.60
2018-06-27T22:34:50.155Z,2.50
2018-06-27T22:37:19.600Z,3.83
2018-06-27T22:39:49.154Z,14.93
2018-06-27T22:42:18.684Z,2.47
2018-06-27T22:44:48.537Z,13.47
2018-06-27T22:47:17.890Z,3.57
2018-06-27T22:49:47.349Z,2.93
2018-06-27T22:52:16.885Z,3.27
2018-06-27T22:54:46.281Z,2.43
2018-06-27T22:57:15.698Z,5.90
2018-06-27T22:59:45.313Z,2.73
2018-06-27T23:02:14.904Z,4.73
2018-06-27T23:04:44.588Z,2.47
2018-06-27T23:07:14.237Z,2.47
2018-06-27T23:09:43.866Z,9.33
2018-06-27T23:12:13.482Z,13.63
2018-06-27T23:14:43.052Z,6.60
2018-06-27T23:17:12.647Z,3.90
2018-06-27T23:19:42.132Z,28.17
2018-06-27T23:22:27.432Z,2.30
2018-06-27T23:24:56.964Z,2.60
2018-06-27T23:27:26.608Z,2.33
2018-06-27T23:29:56.345Z,2.97
2018-06-27T23:32:25.757Z,6.70
2018-06-27T23:34:55.930Z,2.50
2018-06-27T23:37:25.577Z,5.47
2018-06-27T23:39:55.056Z,2.43
2018-06-27T23:42:24.583Z,10.93
2018-06-27T23:44:54.482Z,6.63
2018-06-27T23:47:24.142Z,6.03
2018-06-27T23:49:53.834Z,2.50
2018-06-27T23:52:23.591Z,3.27
2018-06-27T23:54:53.089Z,4.70
2018-06-27T23:57:22.656Z,7.70
2018-06-27T23:59:52.427Z,5.03
